Impacts METAR Board
IDs:

KPHL - Philadelphia Intl, PA, US

Updated at: 1900 UTC 21 Sep 2021
Potential Impact None Slight Moderate High
Time 21/07Z 21/08Z 21/09Z 21/10Z 21/11Z 21/12Z 21/13Z 21/14Z 21/15Z 21/16Z 21/17Z 21/18Z 21/19Z
Temp61 61 61 61 62 65 68 73 74 77 78 79 81
Dewpt57 56 56 57 57 59 61 64 63 63 62 63 63
Altim30.31 30.31 30.31 30.31 30.32 30.33 30.32 30.33 30.32 30.32 30.30 30.28 30.27
VIS10 10 10 10 10 10 10 10 10 10 10 10 10
CIG250 -- -- -- 50 280 280 280 280 55 60 60 70
CoverBKNSCTSCTSCTBKNBKNBKNBKNBKNBKNBKNBKNBKN
FltCatVFRVFRVFRVFRVFRVFRVFRVFRVFRVFRVFRVFRVFR
WX--------------------------
WDir7050704040607090807011090120
WSpd4 4 4 5 4 4 8 9 4 4 6 6 6
WGst-- -- -- -- -- -- -- -- -- -- -- -- --
Raw hourly METARs
KPHL 210654Z 07004KT 10SM FEW035 BKN250 16/14 A3031 RMK AO2 SLP265 T01610139 $
KPHL 210754Z 05004KT 10SM FEW035 SCT250 16/13 A3031 RMK AO2 SLP262 T01610133 $
KPHL 210854Z 07004KT 10SM SCT049 SCT250 16/13 A3031 RMK AO2 SLP263 T01610133 55009 $
KPHL 210954Z 04005KT 10SM SCT050 SCT250 16/14 A3031 RMK AO2 SLP264 T01610139 $
KPHL 211054Z 04004KT 10SM SCT023 BKN050 BKN280 17/14 A3032 RMK AO2 SLP268 T01670139 $
KPHL 211154Z 06004KT 10SM SCT023 SCT050 BKN280 18/15 A3033 RMK AO2 SLP269 T01830150 10183 20156 51006 $
KPHL 211254Z 07008KT 10SM FEW023 FEW050 BKN280 20/16 A3032 RMK AO2 SLP267 T02000161
KPHL 211354Z 09009KT 10SM FEW023 FEW050 BKN280 23/18 A3033 RMK AO2 SLP268 T02280178
KPHL 211454Z 08004KT 10SM SCT025 SCT050 BKN280 23/17 A3032 RMK AO2 SLP267 T02330172 57002
KPHL 211554Z 07004KT 10SM SCT030 BKN055 BKN280 25/17 A3032 RMK AO2 SLP265 T02500172
KPHL 211654Z 11006KT 10SM SCT036 BKN060 BKN280 26/17 A3030 RMK AO2 SLP261 T02560167
KPHL 211754Z 09006KT 10SM FEW039 SCT049 BKN060 BKN280 26/17 A3028 RMK AO2 SLP254 T02610172 10272 20183 58013
KPHL 211854Z 12006KT 10SM SCT041 BKN070 BKN280 27/17 A3027 RMK AO2 SLP249 T02720172



Page loaded:  19:25 UTC  |   12:25 PM Pacific  |   01:25 PM Mountain  |   02:25 PM Central  |   03:25 PM Eastern

 

ADVISORIES

FORECASTS

FORECASTS

OBSERVATIONS

USER TOOLS

ABOUT US